createdAt,value
2023-04-21T00:01:38.873Z,9.03
2023-04-21T00:04:24.361Z,9.09
2023-04-21T00:07:09.512Z,9.08
2023-04-21T00:09:54.869Z,9.06
2023-04-21T00:12:40.323Z,9.04
2023-04-21T00:15:25.905Z,9.08
2023-04-21T00:18:11.182Z,9.05
2023-04-21T00:20:57.489Z,9.11
2023-04-21T00:23:42.296Z,9.14
2023-04-21T00:26:27.646Z,9.09
2023-04-21T00:29:13.001Z,9.15
2023-04-21T00:31:58.307Z,9.18
2023-04-21T00:34:43.639Z,9.19
2023-04-21T00:37:29.070Z,9.20
2023-04-21T00:40:14.143Z,9.25
2023-04-21T00:42:59.588Z,9.24
2023-04-21T00:45:46.066Z,9.27
2023-04-21T00:48:31.593Z,9.32
2023-04-21T00:51:17.370Z,9.32
2023-04-21T00:54:05.265Z,9.33
2023-04-21T00:56:50.445Z,9.31
2023-04-21T00:59:35.617Z,9.38
2023-04-21T01:02:22.451Z,9.34
2023-04-21T01:05:08.624Z,9.39
2023-04-21T01:07:53.916Z,9.38
2023-04-21T01:10:38.975Z,9.41
2023-04-21T01:13:24.427Z,9.45
2023-04-21T01:16:16.539Z,9.39
2023-04-21T01:19:02.146Z,9.39
2023-04-21T01:21:47.307Z,9.46
2023-04-21T01:24:46.289Z,9.48
2023-04-21T01:27:31.616Z,9.48
2023-04-21T01:30:16.812Z,9.52
2023-04-21T01:33:02.359Z,9.48
2023-04-21T01:35:47.531Z,9.41
2023-04-21T01:38:32.714Z,9.26
2023-04-21T01:41:18.395Z,9.13
2023-04-21T01:44:03.776Z,9.11
2023-04-21T01:46:48.793Z,9.15
2023-04-21T01:49:33.775Z,9.26
2023-04-21T01:52:19.345Z,9.32
2023-04-21T01:55:04.929Z,9.40
2023-04-21T01:57:51.322Z,9.43
2023-04-21T02:00:36.202Z,9.48
2023-04-21T02:03:21.778Z,9.42
2023-04-21T02:06:07.434Z,9.37
2023-04-21T02:08:52.542Z,9.26
2023-04-21T02:11:37.973Z,9.25
2023-04-21T02:14:26.880Z,9.38
2023-04-21T02:17:12.236Z,9.35
2023-04-21T02:19:57.695Z,9.49
2023-04-21T02:22:43.139Z,9.60
2023-04-21T02:25:28.545Z,9.65
2023-04-21T02:28:13.427Z,9.65
2023-04-21T02:30:58.340Z,9.53
2023-04-21T02:33:43.860Z,9.50
2023-04-21T02:36:29.110Z,9.52
2023-04-21T02:39:14.407Z,9.57
2023-04-21T02:41:59.688Z,9.62
2023-04-21T02:44:45.032Z,9.65
2023-04-21T02:47:29.927Z,9.73
2023-04-21T02:50:15.461Z,9.76
2023-04-21T02:53:00.641Z,9.75
2023-04-21T02:55:45.878Z,9.77
2023-04-21T02:58:31.164Z,9.85
2023-04-21T03:01:16.066Z,9.84
2023-04-21T03:04:01.449Z,9.88
2023-04-21T03:06:46.757Z,9.96
2023-04-21T03:09:32.275Z,9.98
2023-04-21T03:12:17.620Z,10.07
2023-04-21T03:15:03.415Z,10.00
2023-04-21T03:17:48.316Z,10.06
2023-04-21T03:20:33.813Z,10.14
2023-04-21T03:23:19.243Z,10.08
2023-04-21T03:26:10.180Z,10.14
2023-04-21T03:28:55.081Z,10.17
2023-04-21T03:31:40.033Z,10.16
2023-04-21T03:34:25.364Z,10.16
2023-04-21T03:37:10.293Z,10.10
2023-04-21T03:39:55.698Z,10.13
2023-04-21T03:42:41.488Z,10.17
2023-04-21T03:45:26.483Z,10.12
2023-04-21T03:48:11.546Z,10.04
2023-04-21T03:50:56.934Z,10.08
2023-04-21T03:53:42.442Z,10.03
2023-04-21T03:56:27.788Z,10.01
2023-04-21T03:59:13.197Z,10.03
2023-04-21T04:01:58.261Z,9.89
2023-04-21T04:04:43.875Z,9.82
2023-04-21T04:07:28.937Z,9.73
2023-04-21T04:10:14.262Z,9.75
2023-04-21T04:12:59.670Z,9.70
2023-04-21T04:15:45.121Z,9.64
2023-04-21T04:18:30.330Z,9.61
2023-04-21T04:21:15.854Z,9.58
2023-04-21T04:24:00.979Z,9.55
2023-04-21T04:26:46.386Z,9.56
2023-04-21T04:29:32.233Z,9.43
2023-04-21T04:32:17.370Z,9.46
2023-04-21T04:35:02.269Z,9.41
2023-04-21T04:37:47.191Z,9.36
2023-04-21T04:40:32.026Z,9.43
2023-04-21T04:43:17.392Z,9.38
2023-04-21T04:46:03.425Z,9.45
2023-04-21T04:48:48.393Z,9.48
2023-04-21T04:51:33.631Z,9.49
2023-04-21T04:54:19.414Z,9.39
2023-04-21T04:57:04.761Z,9.49
2023-04-21T04:59:55.064Z,9.40
2023-04-21T05:02:41.128Z,9.45
2023-04-21T05:05:26.464Z,9.45
2023-04-21T05:08:11.977Z,9.48
2023-04-21T05:10:57.191Z,9.53
2023-04-21T05:13:42.527Z,9.61
2023-04-21T05:16:28.017Z,9.83
2023-04-21T05:19:13.056Z,9.75
2023-04-21T05:22:00.957Z,9.78
2023-04-21T05:24:46.325Z,9.86
2023-04-21T05:27:31.753Z,9.93
2023-04-21T05:30:17.185Z,9.98
2023-04-21T05:33:02.643Z,10.00
2023-04-21T05:35:47.814Z,10.13
2023-04-21T05:38:33.070Z,10.17
2023-04-21T05:41:18.368Z,10.23
2023-04-21T05:44:03.867Z,10.29
2023-04-21T05:46:49.192Z,10.35
2023-04-21T05:49:34.764Z,10.42
2023-04-21T05:52:22.688Z,10.48
2023-04-21T05:55:08.025Z,10.57
2023-04-21T05:57:52.982Z,10.74
2023-04-21T06:00:37.752Z,10.65
2023-04-21T06:03:23.351Z,10.80
2023-04-21T06:06:08.919Z,10.75
2023-04-21T06:08:54.432Z,10.84
2023-04-21T06:11:39.481Z,10.90
2023-04-21T06:14:24.865Z,10.99
2023-04-21T06:17:10.077Z,11.11
2023-04-21T06:19:55.464Z,11.17
2023-04-21T06:22:40.738Z,11.37
2023-04-21T06:25:26.142Z,11.64
2023-04-21T06:28:11.372Z,11.84
2023-04-21T06:30:56.632Z,12.05
2023-04-21T06:33:42.041Z,12.22
2023-04-21T06:36:27.307Z,12.19
2023-04-21T06:39:12.666Z,12.27
2023-04-21T06:41:58.121Z,12.57
2023-04-21T06:44:43.474Z,12.56
2023-04-21T06:47:28.230Z,12.76
2023-04-21T06:50:13.619Z,13.02
2023-04-21T06:52:58.365Z,12.90
2023-04-21T06:55:43.878Z,13.03
2023-04-21T06:58:29.085Z,13.00
2023-04-21T07:01:14.014Z,13.09
2023-04-21T07:03:59.686Z,13.11
2023-04-21T07:06:44.868Z,13.19
2023-04-21T07:09:30.088Z,13.11
2023-04-21T07:12:15.065Z,13.19
2023-04-21T07:15:00.170Z,13.17
2023-04-21T07:17:45.023Z,13.21
2023-04-21T07:20:30.479Z,13.23
2023-04-21T07:23:15.365Z,13.25
2023-04-21T07:26:00.653Z,13.30
2023-04-21T07:28:45.557Z,13.37
2023-04-21T07:31:30.519Z,13.62
2023-04-21T07:34:15.886Z,13.74
2023-04-21T07:37:00.710Z,13.65
2023-04-21T07:39:46.042Z,13.79
2023-04-21T07:42:31.518Z,13.97
2023-04-21T07:45:16.970Z,13.90
2023-04-21T07:48:02.334Z,13.86
2023-04-21T07:50:47.669Z,14.05
2023-04-21T07:53:33.028Z,14.13
2023-04-21T07:56:18.365Z,14.06
2023-04-21T07:59:03.921Z,14.05
2023-04-21T08:01:48.855Z,14.10
2023-04-21T08:04:34.666Z,14.27
2023-04-21T08:07:19.887Z,14.29
2023-04-21T08:10:06.881Z,14.33
2023-04-21T08:12:52.000Z,14.55
2023-04-21T08:15:37.032Z,14.50
2023-04-21T08:18:22.730Z,14.19
2023-04-21T08:21:08.262Z,14.20
2023-04-21T08:23:53.661Z,14.38
2023-04-21T08:26:39.208Z,14.46
2023-04-21T08:29:24.419Z,14.83
2023-04-21T08:32:09.241Z,15.62
2023-04-21T08:34:55.078Z,15.99
2023-04-21T08:37:40.192Z,16.04
2023-04-21T08:40:33.615Z,16.18
2023-04-21T08:43:19.426Z,15.95
2023-04-21T08:46:07.864Z,15.83
2023-04-21T08:48:55.117Z,15.61
2023-04-21T08:51:40.705Z,15.44
2023-04-21T08:54:26.369Z,15.29
2023-04-21T08:57:15.818Z,15.27
2023-04-21T09:00:01.618Z,15.23
2023-04-21T09:03:02.269Z,15.36
2023-04-21T09:05:58.384Z,15.43
2023-04-21T09:08:53.435Z,15.59
2023-04-21T09:11:38.777Z,15.67
2023-04-21T09:14:31.837Z,15.12
2023-04-21T09:17:18.350Z,15.15
2023-04-21T09:20:19.647Z,15.33
2023-04-21T09:23:05.513Z,16.07
2023-04-21T09:25:50.506Z,16.88
2023-04-21T09:28:35.996Z,17.05
2023-04-21T09:31:24.182Z,16.96
2023-04-21T09:34:26.466Z,17.40
2023-04-21T09:37:14.169Z,17.52
2023-04-21T09:42:48.498Z,17.95
2023-04-21T09:45:40.089Z,18.14
2023-04-21T09:48:32.137Z,18.18
2023-04-21T09:54:29.151Z,17.94
2023-04-21T09:57:20.976Z,17.79
2023-04-21T10:00:07.795Z,17.59
2023-04-21T10:02:54.541Z,17.45
2023-04-21T10:05:42.334Z,18.03
2023-04-21T10:08:49.629Z,18.65
2023-04-21T10:11:35.653Z,18.32
2023-04-21T10:14:21.373Z,18.58
2023-04-21T10:17:09.435Z,18.80
2023-04-21T10:19:57.558Z,18.35
2023-04-21T10:22:43.436Z,18.73
2023-04-21T10:25:29.923Z,19.31
2023-04-21T10:28:18.649Z,19.67
2023-04-21T10:31:17.088Z,19.13
2023-04-21T10:34:05.179Z,19.20
2023-04-21T10:36:56.743Z,19.15
2023-04-21T10:39:53.901Z,18.82
2023-04-21T10:42:39.163Z,18.60
2023-04-21T10:45:27.491Z,18.69
2023-04-21T10:48:13.842Z,18.57
2023-04-21T10:50:58.798Z,18.94
2023-04-21T10:53:44.209Z,19.35
2023-04-21T10:56:29.696Z,19.36
2023-04-21T10:59:15.708Z,19.81
2023-04-21T11:02:00.992Z,19.13
2023-04-21T11:04:51.386Z,18.68
2023-04-21T11:07:36.787Z,18.47
2023-04-21T11:10:22.277Z,18.57
2023-04-21T11:13:07.876Z,18.66
2023-04-21T11:16:06.814Z,18.64
2023-04-21T11:18:51.902Z,18.54
2023-04-21T11:21:37.385Z,18.58
2023-04-21T11:24:23.512Z,18.65
2023-04-21T11:27:08.723Z,18.77
2023-04-21T11:29:53.820Z,18.97
2023-04-21T11:32:39.199Z,18.73
2023-04-21T11:35:25.244Z,18.86
2023-04-21T11:38:10.262Z,19.02
2023-04-21T11:40:55.603Z,19.18
2023-04-21T11:43:45.578Z,19.18
2023-04-21T11:46:31.049Z,19.21
2023-04-21T11:49:16.430Z,19.60
2023-04-21T11:52:01.760Z,19.48
2023-04-21T11:54:47.494Z,19.25
2023-04-21T11:57:33.826Z,20.24
2023-04-21T12:00:19.841Z,20.29
2023-04-21T12:03:09.189Z,20.03
2023-04-21T12:05:56.523Z,20.79
2023-04-21T12:08:41.738Z,20.50
2023-04-21T12:11:28.590Z,19.98
2023-04-21T12:14:15.156Z,20.23
2023-04-21T12:17:00.781Z,20.69
2023-04-21T12:19:46.407Z,20.33
2023-04-21T12:22:31.788Z,19.63
2023-04-21T12:25:17.175Z,19.47
2023-04-21T12:28:02.240Z,20.04
2023-04-21T12:30:47.690Z,21.17
2023-04-21T12:33:33.539Z,20.46
2023-04-21T12:36:18.982Z,21.82
2023-04-21T12:39:04.352Z,21.76
2023-04-21T12:41:49.618Z,21.35
2023-04-21T12:44:34.726Z,21.30
2023-04-21T12:47:19.847Z,21.40
2023-04-21T12:50:05.977Z,21.50
2023-04-21T12:52:51.194Z,22.05
2023-04-21T12:55:36.715Z,21.92
2023-04-21T12:58:22.083Z,22.10
2023-04-21T13:01:07.648Z,21.54
2023-04-21T13:03:53.157Z,20.80
2023-04-21T13:06:39.157Z,21.53
2023-04-21T13:09:24.380Z,22.01
2023-04-21T13:12:09.267Z,22.29
2023-04-21T13:14:54.553Z,22.78
2023-04-21T13:17:40.556Z,22.42
2023-04-21T13:20:25.671Z,22.85
2023-04-21T13:23:11.061Z,22.70
2023-04-21T13:25:55.913Z,22.22
2023-04-21T13:28:41.525Z,21.61
2023-04-21T13:31:26.844Z,20.94
2023-04-21T13:34:11.942Z,20.46
2023-04-21T13:36:57.427Z,20.62
2023-04-21T13:39:43.473Z,20.42
2023-04-21T13:42:28.806Z,20.15
2023-04-21T13:45:13.624Z,20.25
2023-04-21T13:47:59.113Z,20.28
2023-04-21T13:50:44.371Z,20.32
2023-04-21T13:53:29.738Z,20.19
2023-04-21T13:56:14.656Z,20.39
2023-04-21T13:59:00.018Z,20.59
2023-04-21T14:01:45.462Z,20.86
2023-04-21T14:04:30.857Z,21.27
2023-04-21T14:07:16.182Z,21.27
2023-04-21T14:10:01.916Z,21.70
2023-04-21T14:12:47.070Z,21.49
2023-04-21T14:15:32.520Z,20.90
2023-04-21T14:18:18.027Z,20.54
2023-04-21T14:21:04.239Z,20.43
2023-04-21T14:23:49.208Z,20.28
2023-04-21T14:26:36.026Z,20.22
2023-04-21T14:29:22.470Z,20.27
2023-04-21T14:32:07.652Z,20.16
2023-04-21T14:34:53.010Z,20.13
2023-04-21T14:37:38.975Z,20.17
2023-04-21T14:40:24.660Z,19.95
2023-04-21T14:43:09.776Z,20.06
2023-04-21T14:45:55.137Z,20.34
2023-04-21T14:48:40.457Z,20.22
2023-04-21T14:51:25.641Z,20.46
2023-04-21T14:54:10.679Z,20.68
2023-04-21T14:57:06.702Z,20.73
2023-04-21T15:00:00.794Z,20.90
2023-04-21T15:02:46.263Z,20.51
2023-04-21T15:05:31.493Z,20.47
2023-04-21T15:08:16.793Z,20.38
2023-04-21T15:11:02.549Z,20.44
2023-04-21T15:13:48.219Z,20.20
2023-04-21T15:16:33.576Z,20.11
2023-04-21T15:19:18.941Z,20.06
2023-04-21T15:22:04.017Z,19.67
2023-04-21T15:24:49.218Z,19.71
2023-04-21T15:27:34.625Z,19.71
2023-04-21T15:30:20.155Z,19.46
2023-04-21T15:33:05.612Z,19.43
2023-04-21T15:35:50.802Z,19.52
2023-04-21T15:38:36.199Z,19.54
2023-04-21T15:41:21.527Z,19.59
2023-04-21T15:44:07.109Z,20.19
2023-04-21T15:46:52.411Z,20.46
2023-04-21T15:49:37.937Z,20.79
2023-04-21T15:52:23.167Z,20.33
2023-04-21T15:55:10.880Z,20.07
2023-04-21T15:57:56.243Z,19.89
2023-04-21T16:00:41.774Z,19.83
2023-04-21T16:03:27.625Z,19.82
2023-04-21T16:06:13.087Z,19.58
2023-04-21T16:08:58.435Z,19.56
2023-04-21T16:11:43.765Z,19.72
2023-04-21T16:14:36.152Z,19.54
2023-04-21T16:17:28.402Z,19.48
2023-04-21T16:20:13.881Z,19.50
2023-04-21T16:22:59.234Z,19.60
2023-04-21T16:25:44.490Z,19.52
2023-04-21T16:28:29.752Z,19.93
2023-04-21T16:31:15.162Z,20.02
2023-04-21T16:34:00.740Z,19.85
2023-04-21T16:36:46.072Z,19.81
2023-04-21T16:39:31.683Z,19.63
2023-04-21T16:42:17.033Z,19.64
2023-04-21T16:45:02.845Z,19.64
2023-04-21T16:47:48.025Z,19.41
2023-04-21T16:50:33.562Z,19.37
2023-04-21T16:53:18.747Z,19.25
2023-04-21T16:56:04.140Z,19.17
2023-04-21T16:58:49.258Z,19.34
2023-04-21T17:01:34.640Z,19.29
2023-04-21T17:04:21.061Z,19.25
2023-04-21T17:07:06.394Z,19.32
2023-04-21T17:09:51.897Z,19.11
2023-04-21T17:12:37.404Z,19.27
2023-04-21T17:15:22.747Z,19.25
2023-04-21T17:18:08.382Z,19.21
2023-04-21T17:20:53.798Z,19.25
2023-04-21T17:23:39.201Z,18.99
2023-04-21T17:26:24.632Z,18.89
2023-04-21T17:29:10.262Z,18.77
2023-04-21T17:31:55.779Z,18.91
2023-04-21T17:34:41.208Z,18.86
2023-04-21T17:37:26.717Z,18.70
2023-04-21T17:40:12.594Z,18.78
2023-04-21T17:42:57.827Z,18.80
2023-04-21T17:45:45.092Z,18.59
2023-04-21T17:48:30.506Z,18.53
2023-04-21T17:51:15.871Z,18.45
2023-04-21T17:54:01.309Z,18.43
2023-04-21T17:56:46.834Z,18.28
2023-04-21T17:59:32.193Z,18.25
2023-04-21T18:02:18.080Z,18.13
2023-04-21T18:05:04.234Z,18.07
2023-04-21T18:07:49.607Z,18.10
2023-04-21T18:10:36.322Z,18.15
2023-04-21T18:13:21.908Z,18.06
2023-04-21T18:16:07.388Z,18.09
2023-04-21T18:18:52.587Z,18.05
2023-04-21T18:21:38.200Z,18.06
2023-04-21T18:24:23.593Z,18.07
2023-04-21T18:27:08.941Z,18.05
2023-04-21T18:29:54.367Z,18.06
2023-04-21T18:32:40.190Z,17.99
2023-04-21T18:35:25.569Z,18.05
2023-04-21T18:38:10.975Z,18.04
2023-04-21T18:40:56.340Z,17.94
2023-04-21T18:43:41.835Z,17.89
2023-04-21T18:46:26.946Z,17.79
2023-04-21T18:49:12.385Z,17.87
2023-04-21T18:51:57.720Z,17.76
2023-04-21T18:54:43.097Z,17.71
2023-04-21T18:57:28.483Z,17.74
2023-04-21T19:00:14.302Z,17.64
2023-04-21T19:03:00.638Z,17.60
2023-04-21T19:05:45.836Z,17.62
2023-04-21T19:08:42.197Z,17.53
2023-04-21T19:11:28.834Z,17.47
2023-04-21T19:14:13.798Z,17.46
2023-04-21T19:16:59.284Z,17.48
2023-04-21T19:19:44.670Z,17.41
2023-04-21T19:22:30.047Z,17.51
2023-04-21T19:25:15.592Z,17.45
2023-04-21T19:28:00.990Z,17.46
2023-04-21T19:30:46.392Z,17.40
2023-04-21T19:33:31.883Z,17.42
2023-04-21T19:36:17.252Z,17.44
2023-04-21T19:39:02.591Z,17.43
2023-04-21T19:41:48.044Z,17.34
2023-04-21T19:44:34.011Z,17.25
2023-04-21T19:47:19.156Z,17.33
2023-04-21T19:50:05.167Z,17.41
2023-04-21T19:52:50.200Z,17.25
2023-04-21T19:55:35.686Z,17.22
2023-04-21T19:58:38.235Z,17.00
2023-04-21T20:01:24.534Z,16.71
2023-04-21T20:04:12.116Z,16.66
2023-04-21T20:06:57.783Z,16.41
2023-04-21T20:09:43.208Z,16.20
2023-04-21T20:12:28.664Z,16.13
2023-04-21T20:15:14.182Z,16.11
2023-04-21T20:17:59.643Z,15.99
2023-04-21T20:20:45.095Z,15.60
2023-04-21T20:23:30.588Z,15.54
2023-04-21T20:26:16.611Z,15.67
2023-04-21T20:29:01.478Z,15.67
2023-04-21T20:31:46.883Z,15.66
2023-04-21T20:34:32.222Z,15.59
2023-04-21T20:37:17.710Z,15.63
2023-04-21T20:40:03.701Z,15.44
2023-04-21T20:42:48.900Z,15.23
2023-04-21T20:45:34.286Z,15.34
2023-04-21T20:48:19.746Z,15.33
2023-04-21T20:51:05.387Z,15.24
2023-04-21T20:53:50.740Z,15.09
2023-04-21T20:56:36.133Z,15.13
2023-04-21T20:59:21.620Z,14.78
2023-04-21T21:02:07.546Z,14.79
2023-04-21T21:04:52.853Z,14.79
2023-04-21T21:07:38.145Z,14.75
2023-04-21T21:10:23.821Z,14.82
2023-04-21T21:13:09.308Z,14.75
2023-04-21T21:15:54.763Z,14.86
2023-04-21T21:18:40.307Z,14.86
2023-04-21T21:21:25.676Z,14.88
2023-04-21T21:24:10.983Z,14.92
2023-04-21T21:26:56.372Z,14.98
2023-04-21T21:29:41.833Z,15.00
2023-04-21T21:32:27.379Z,14.40
2023-04-21T21:35:12.612Z,14.46
2023-04-21T21:37:58.109Z,14.52
2023-04-21T21:40:43.526Z,14.59
2023-04-21T21:43:29.015Z,14.65
2023-04-21T21:46:14.766Z,14.60
2023-04-21T21:48:59.935Z,14.49
2023-04-21T21:51:45.272Z,14.42
2023-04-21T21:54:31.047Z,14.48
2023-04-21T21:57:16.576Z,14.41
2023-04-21T22:00:01.931Z,14.34
2023-04-21T22:02:47.377Z,14.34
2023-04-21T22:05:32.546Z,14.50
2023-04-21T22:08:17.828Z,14.31
2023-04-21T22:11:03.338Z,14.41
2023-04-21T22:13:48.703Z,14.32
2023-04-21T22:16:34.318Z,14.13
2023-04-21T22:19:19.720Z,14.20
2023-04-21T22:22:04.812Z,14.16
2023-04-21T22:24:50.202Z,13.99
2023-04-21T22:27:35.537Z,13.83
2023-04-21T22:30:20.928Z,13.81
2023-04-21T22:33:06.171Z,13.66
2023-04-21T22:35:51.353Z,13.75
2023-04-21T22:38:36.830Z,13.75
2023-04-21T22:41:22.198Z,13.75
2023-04-21T22:44:07.635Z,13.60
2023-04-21T22:46:53.130Z,13.67
2023-04-21T22:49:39.098Z,13.64
2023-04-21T22:52:24.531Z,13.67
2023-04-21T22:55:10.258Z,13.63
2023-04-21T22:57:55.239Z,13.70
2023-04-21T23:00:40.243Z,13.72
2023-04-21T23:03:25.419Z,13.26
2023-04-21T23:06:10.730Z,12.53
2023-04-21T23:08:55.735Z,12.21
2023-04-21T23:11:41.343Z,12.46
2023-04-21T23:14:26.424Z,12.65
2023-04-21T23:17:11.763Z,12.76
2023-04-21T23:19:56.739Z,12.71
2023-04-21T23:22:42.111Z,12.76
2023-04-21T23:25:27.707Z,12.83
2023-04-21T23:28:13.122Z,12.79
2023-04-21T23:30:58.804Z,12.81
2023-04-21T23:33:44.020Z,12.67
2023-04-21T23:36:29.241Z,12.62
2023-04-21T23:39:14.194Z,12.71
2023-04-21T23:41:59.566Z,12.61
2023-04-21T23:44:45.154Z,12.63
2023-04-21T23:47:29.928Z,12.57
2023-04-21T23:50:15.124Z,12.95
2023-04-21T23:53:00.495Z,12.84
2023-04-21T23:55:45.931Z,12.64
2023-04-21T23:58:31.406Z,12.82
